Main page
METAR-TAF:

METAR-TAF

Airports :

Aberdeen Airport

Aberdeen, Scotland

latitude: 57-12N, longitude: 002-13W, elevation: 65 m

Current weather observation

The report was made 23 minutes ago, at 04:20 UTC
Wind 3 kt from variable directions
Temperature 15°C
Humidity 88%
Pressure 1010 hPa
Visibility 10 km or more

METAR: EGPD 220420Z AUTO VRB03KT 9999 NCD 15/13 Q1010 NOSIG

Time: 05:43 (04:43 UTC)

Forecast

The report was made 5 hours and 48 minutes ago, at 22:55 UTC
Forecast valid from 22 at 00 UTC to 22 at 24 UTC
Wind 2 kt from variable directions
Visibility: 3000 m
Broken clouds at a height of 400 ft
mist
Becoming
from 22 at 00 UTC to 22 at 04 UTC
Visibility 10 km or more
Scattered clouds at a height of 3000 ft
Probability 40%
from 22 at 04 UTC to 22 at 07 UTC
Visibility: 6000 m

TAF: EGPD 212255Z 2200/2224 VRB02KT 3000 BR BKN004 BECMG 2200/2204 9999 NSW SCT030 PROB40 2204/2207 6000

Weather observations and forecasts of more than 4000 airports (METAR and TAF reports).

The available stations are represented by yellow and red dots on the map.

Hover mouse over dot to see the name of the station.

Then click to see weather observations and forecasts.

To change the map : click on the green buttons with a black cross to zoom in, on the green button with a dash to zoom out, or on the green arrows for adjacent maps.


METAR-TAF: